Time;durP1;ratioP1;P1;durP2;ratioP2;P2;SDS_P1;SDS_P2;PMS_P1;PMS_P2;Temp;Humidity;BMP_temperature;BMP_pressure;BME280_temperature;BME280_humidity;BME280_pressure;Samples;Min_cycle;Max_cycle;Signal;HPM_P1;HPM_P2
2022/02/28 00:00:12;;;;;;;609.13;89.53;;;2.00;99.90;;;;;;4956586;28;20520;-71
2022/02/28 00:02:40;;;;;;;665.37;126.57;;;2.10;99.90;;;;;;4956545;28;20463;-71
2022/02/28 00:05:10;;;;;;;594.43;118.83;;;2.00;99.90;;;;;;4954327;29;20446;-71
2022/02/28 00:07:38;;;;;;;610.50;107.90;;;2.00;99.90;;;;;;4943785;29;20543;-71
2022/02/28 00:10:08;;;;;;;432.77;61.20;;;2.00;99.90;;;;;;4956370;28;20454;-71
2022/02/28 00:12:37;;;;;;;388.43;56.67;;;2.00;99.90;;;;;;4956154;28;20485;-72
2022/02/28 00:15:07;;;;;;;1999.90;344.83;;;2.00;99.90;;;;;;4956595;29;20453;-71
2022/02/28 00:17:36;;;;;;;621.40;123.10;;;1.90;99.90;;;;;;4956074;28;20790;-71
2022/02/28 00:20:06;;;;;;;671.17;113.30;;;1.90;99.90;;;;;;4954967;28;20972;-71
2022/02/28 00:22:36;;;;;;;499.73;79.60;;;1.90;99.90;;;;;;4955892;28;20976;-71
2022/02/28 00:25:05;;;;;;;613.20;100.70;;;1.80;99.90;;;;;;4955862;29;20450;-71
2022/02/28 00:27:34;;;;;;;553.60;108.77;;;1.90;99.90;;;;;;4955876;29;20451;-71
2022/02/28 00:30:04;;;;;;;505.93;112.87;;;1.80;99.90;;;;;;4954617;28;20484;-71
2022/02/28 00:32:35;;;;;;;347.87;49.83;;;1.80;99.90;;;;;;4954005;28;20869;-71
2022/02/28 00:35:04;;;;;;;665.60;97.50;;;1.80;99.90;;;;;;4955659;28;20973;-71
2022/02/28 00:37:32;;;;;;;670.07;128.07;;;1.80;99.90;;;;;;4954691;28;20461;-71
2022/02/28 00:40:03;;;;;;;503.07;105.03;;;1.80;99.90;;;;;;4954620;28;20465;-71
2022/02/28 00:42:31;;;;;;;607.90;103.73;;;1.80;99.90;;;;;;4955581;29;20456;-71
2022/02/28 00:44:59;;;;;;;531.37;93.27;;;1.70;99.90;;;;;;4955544;28;20459;-71
2022/02/28 00:47:27;;;;;;;395.23;68.17;;;1.70;99.90;;;;;;4954355;28;20459;-71
2022/02/28 00:49:55;;;;;;;407.03;81.77;;;1.70;99.90;;;;;;4955788;28;20445;-71
2022/02/28 00:52:23;;;;;;;1999.90;304.57;;;1.70;99.90;;;;;;4955314;28;20580;-72
2022/02/28 00:54:52;;;;;;;564.40;102.50;;;1.70;99.90;;;;;;4954882;28;20452;-71
2022/02/28 00:57:21;;;;;;;461.10;67.93;;;1.70;99.90;;;;;;4954238;29;20528;-71
2022/02/28 00:59:49;;;;;;;569.00;116.00;;;1.60;99.90;;;;;;4954269;29;20456;-71
2022/02/28 01:02:18;;;;;;;1999.90;340.30;;;1.60;99.90;;;;;;4954269;28;20531;-71
2022/02/28 01:04:46;;;;;;;457.97;68.17;;;1.60;99.90;;;;;;4955356;28;20472;-71
2022/02/28 01:07:14;;;;;;;554.97;110.67;;;1.60;99.90;;;;;;4953859;29;21061;-71
2022/02/28 01:09:42;;;;;;;624.07;122.37;;;1.60;99.90;;;;;;4953995;28;20456;-71
2022/02/28 01:12:11;;;;;;;505.97;98.20;;;1.60;99.90;;;;;;4953227;28;20477;-71
2022/02/28 01:14:41;;;;;;;1888.73;232.83;;;1.60;99.90;;;;;;4952922;29;20978;-71
2022/02/28 01:17:09;;;;;;;670.70;77.83;;;1.60;99.90;;;;;;4955106;29;20458;-71
2022/02/28 01:19:38;;;;;;;626.40;97.93;;;1.60;99.90;;;;;;4953964;28;20488;-71
2022/02/28 01:22:09;;;;;;;1519.20;207.87;;;1.60;99.90;;;;;;4955165;29;20454;-71
2022/02/28 01:24:38;;;;;;;600.17;85.23;;;1.50;99.90;;;;;;4955160;28;20461;-71
2022/02/28 01:27:07;;;;;;;530.20;93.87;;;1.50;99.90;;;;;;4955335;28;20474;-71
2022/02/28 01:29:35;;;;;;;483.23;89.80;;;1.50;99.90;;;;;;4953816;29;20452;-71
2022/02/28 01:32:06;;;;;;;1999.90;359.70;;;1.50;99.90;;;;;;4953668;28;21005;-71
2022/02/28 01:34:34;;;;;;;1410.53;169.43;;;1.50;99.90;;;;;;4953904;29;20445;-71
2022/02/28 01:37:02;;;;;;;326.70;79.63;;;1.40;99.90;;;;;;4953448;28;20472;-71
2022/02/28 01:39:31;;;;;;;624.07;103.13;;;1.40;99.90;;;;;;4954959;29;20439;-71
2022/02/28 01:41:59;;;;;;;1040.63;125.20;;;1.40;99.90;;;;;;4954931;28;20564;-71
2022/02/28 01:44:27;;;;;;;400.27;69.73;;;1.40;99.90;;;;;;4953628;28;20945;-71
2022/02/28 01:46:59;;;;;;;462.07;88.33;;;1.40;99.90;;;;;;4955089;28;20858;-71
2022/02/28 01:49:30;;;;;;;1999.90;294.17;;;1.30;99.90;;;;;;4955246;28;20419;-71
2022/02/28 01:51:59;;;;;;;776.83;135.67;;;1.30;99.90;;;;;;4955411;28;20491;-71
2022/02/28 01:54:28;;;;;;;617.07;98.53;;;1.30;99.90;;;;;;4953677;29;20506;-71
2022/02/28 01:56:56;;;;;;;725.33;119.50;;;1.30;99.90;;;;;;4955029;28;20451;-71
2022/02/28 01:59:24;;;;;;;797.87;99.00;;;1.30;99.90;;;;;;4952889;29;20534;-71
2022/02/28 02:01:52;;;;;;;1792.67;202.97;;;1.30;99.90;;;;;;4954651;28;20466;-71
2022/02/28 02:04:21;;;;;;;490.90;86.10;;;1.20;99.90;;;;;;4954747;29;20530;-71
2022/02/28 02:06:52;;;;;;;1999.90;323.00;;;1.30;99.90;;;;;;4953522;28;20451;-71
2022/02/28 02:09:21;;;;;;;513.93;88.70;;;1.20;99.90;;;;;;4958473;28;20439;-71
2022/02/28 02:11:49;;;;;;;1999.90;318.97;;;1.20;99.90;;;;;;4956982;28;20475;-71
2022/02/28 02:14:18;;;;;;;495.03;91.97;;;1.20;99.90;;;;;;4956979;29;20472;-71
2022/02/28 02:16:46;;;;;;;662.53;92.70;;;1.20;99.90;;;;;;4957305;29;20808;-71
2022/02/28 02:19:14;;;;;;;556.27;63.83;;;1.20;99.90;;;;;;4957238;28;20475;-71
2022/02/28 02:21:44;;;;;;;351.50;54.73;;;1.10;99.90;;;;;;4956865;28;20468;-71
2022/02/28 02:24:12;;;;;;;1999.90;363.30;;;1.10;99.90;;;;;;4956449;28;20913;-71
2022/02/28 02:26:40;;;;;;;1999.90;268.27;;;1.10;99.90;;;;;;4956917;29;20877;-71
2022/02/28 02:29:09;;;;;;;714.27;137.67;;;1.10;99.90;;;;;;4956750;29;20462;-71
2022/02/28 02:31:37;;;;;;;720.03;86.80;;;1.10;99.90;;;;;;4958211;29;20538;-71
2022/02/28 02:34:06;;;;;;;721.73;113.37;;;1.10;99.90;;;;;;4957866;29;20914;-71
2022/02/28 02:36:34;;;;;;;1584.73;189.53;;;1.10;99.90;;;;;;4956691;29;20477;-71
2022/02/28 02:39:04;;;;;;;562.77;45.53;;;1.00;99.90;;;;;;4956615;29;20453;-71
2022/02/28 02:41:32;;;;;;;614.10;81.73;;;1.00;99.90;;;;;;4958342;28;20498;-71
2022/02/28 02:44:01;;;;;;;720.10;66.33;;;1.00;99.90;;;;;;4956144;28;20451;-71
2022/02/28 02:46:29;;;;;;;1999.90;308.70;;;1.00;99.90;;;;;;4957775;28;20522;-71
2022/02/28 02:49:18;;;;;;;668.33;108.57;;;1.00;99.90;;;;;;4957612;29;20518;-71
2022/02/28 02:51:47;;;;;;;1675.93;206.97;;;1.00;99.90;;;;;;4957900;28;20569;-71
2022/02/28 02:54:19;;;;;;;1814.03;226.60;;;0.90;99.90;;;;;;4956446;28;20478;-71
2022/02/28 02:56:48;;;;;;;387.83;60.63;;;0.90;99.90;;;;;;4956287;29;20475;-71
2022/02/28 02:59:19;;;;;;;1999.90;257.50;;;0.90;99.90;;;;;;4956341;29;20447;-71
2022/02/28 03:01:48;;;;;;;403.27;77.33;;;0.90;99.90;;;;;;4956427;28;20469;-71
2022/02/28 03:04:17;;;;;;;559.13;63.57;;;0.90;99.90;;;;;;4956455;29;20510;-71
2022/02/28 03:06:46;;;;;;;427.53;80.70;;;0.80;99.90;;;;;;4956388;29;20450;-71
2022/02/28 03:09:14;;;;;;;1980.50;250.27;;;0.90;99.90;;;;;;4954159;29;20510;-71
2022/02/28 03:11:46;;;;;;;611.80;56.57;;;0.80;99.90;;;;;;4955925;28;20474;-71
2022/02/28 03:14:16;;;;;;;677.87;59.70;;;0.80;99.90;;;;;;4956156;29;20534;-71
2022/02/28 03:16:45;;;;;;;504.70;73.93;;;0.80;99.90;;;;;;4955992;29;20463;-71
2022/02/28 03:19:13;;;;;;;1999.90;258.80;;;0.80;99.90;;;;;;4955614;28;20493;-71
2022/02/28 03:21:46;;;;;;;1692.73;220.37;;;0.80;99.90;;;;;;4956536;29;20521;-71
2022/02/28 03:24:15;;;;;;;521.97;42.90;;;0.70;99.90;;;;;;4955927;29;20505;-71
2022/02/28 03:26:44;;;;;;;532.03;78.43;;;0.70;99.90;;;;;;4955756;29;20542;-71
2022/02/28 03:29:12;;;;;;;413.33;82.90;;;0.70;99.90;;;;;;4954983;29;20455;-71
2022/02/28 03:31:41;;;;;;;1999.90;280.47;;;0.70;99.90;;;;;;4954729;28;20486;-71
2022/02/28 03:34:10;;;;;;;1999.90;251.43;;;0.70;99.90;;;;;;4955641;28;20467;-71
2022/02/28 03:36:38;;;;;;;390.17;65.73;;;0.70;99.90;;;;;;4955534;29;20571;-71
2022/02/28 03:39:13;;;;;;;1816.07;261.13;;;0.70;99.90;;;;;;4955613;29;20446;-71
2022/02/28 03:41:42;;;;;;;1932.53;281.90;;;0.70;99.90;;;;;;4955468;28;20503;-71
2022/02/28 03:44:11;;;;;;;440.33;95.47;;;0.70;99.90;;;;;;4956717;29;20440;-71
2022/02/28 03:46:42;;;;;;;561.47;76.67;;;0.60;99.90;;;;;;4955457;29;20502;-71
2022/02/28 03:49:16;;;;;;;729.67;122.93;;;0.60;99.90;;;;;;4957010;29;20434;-71
2022/02/28 03:51:53;;;;;;;1807.03;239.90;;;0.60;99.90;;;;;;4954787;28;20482;-71
2022/02/28 03:54:35;;;;;;;506.60;54.93;;;0.60;99.90;;;;;;4955154;29;20475;-71
2022/02/28 03:57:04;;;;;;;1747.40;226.97;;;0.60;99.90;;;;;;4955249;29;20459;-71
2022/02/28 03:59:33;;;;;;;523.63;45.87;;;0.60;99.90;;;;;;4955174;29;20454;-71
2022/02/28 04:02:01;;;;;;;355.87;45.03;;;0.50;99.90;;;;;;4956511;28;20513;-71
2022/02/28 04:04:37;;;;;;;1661.50;236.23;;;0.50;99.90;;;;;;4955715;28;20837;-71
2022/02/28 04:07:07;;;;;;;237.73;69.20;;;0.50;99.90;;;;;;4955049;29;20455;-71
2022/02/28 04:09:36;;;;;;;496.87;93.00;;;0.50;99.90;;;;;;4954941;29;20957;-71
2022/02/28 04:12:07;;;;;;;1760.90;254.90;;;0.50;99.90;;;;;;4954864;28;20474;-71
2022/02/28 04:14:38;;;;;;;553.23;82.23;;;0.50;99.90;;;;;;4954860;28;20467;-71
2022/02/28 04:17:06;;;;;;;424.53;38.13;;;0.40;99.90;;;;;;4952489;28;20514;-71
2022/02/28 04:19:38;;;;;;;1964.07;248.83;;;0.40;99.90;;;;;;4956416;29;20919;-71
2022/02/28 04:22:07;;;;;;;707.27;84.70;;;0.40;99.90;;;;;;4954914;28;20470;-71
2022/02/28 04:24:45;;;;;;;533.60;60.73;;;0.40;99.90;;;;;;4954805;29;20448;-71
2022/02/28 04:27:15;;;;;;;570.40;78.77;;;0.40;99.90;;;;;;4955497;29;20498;-71
2022/02/28 04:29:49;;;;;;;477.53;75.73;;;0.30;99.90;;;;;;4954108;28;20463;-71
2022/02/28 04:32:20;;;;;;;1732.87;213.13;;;0.30;99.90;;;;;;4954579;28;20913;-71
2022/02/28 04:34:58;;;;;;;1999.90;237.90;;;0.30;99.90;;;;;;4954526;29;20502;-71
2022/02/28 04:37:28;;;;;;;1999.90;277.47;;;0.30;99.90;;;;;;4954468;29;20537;-71
2022/02/28 04:39:57;;;;;;;416.03;73.37;;;0.30;99.90;;;;;;4955306;29;20459;-71
2022/02/28 04:42:28;;;;;;;419.10;62.83;;;0.30;99.90;;;;;;4954359;28;20482;-71
2022/02/28 04:44:58;;;;;;;1637.33;212.70;;;0.20;99.90;;;;;;4954385;28;20475;-71
2022/02/28 04:47:26;;;;;;;467.90;85.03;;;0.20;99.90;;;;;;4954447;28;20991;-71
2022/02/28 04:49:57;;;;;;;1489.97;194.23;;;0.20;99.90;;;;;;4956282;29;20432;-71
2022/02/28 04:52:26;;;;;;;1485.60;192.13;;;0.20;99.90;;;;;;4954347;28;20460;-70
2022/02/28 04:54:54;;;;;;;504.80;77.17;;;0.10;99.90;;;;;;4954271;29;20475;-71
2022/02/28 04:57:22;;;;;;;531.30;66.47;;;0.10;99.90;;;;;;4953963;29;20883;-71
2022/02/28 04:59:51;;;;;;;1604.17;208.17;;;0.10;99.90;;;;;;4954162;28;20455;-71
2022/02/28 05:02:21;;;;;;;1999.90;277.73;;;0.10;99.90;;;;;;4954003;29;20481;-71
2022/02/28 05:05:04;;;;;;;1690.43;210.73;;;0.10;99.90;;;;;;4955382;28;20511;-71
2022/02/28 05:07:32;;;;;;;1921.57;253.47;;;0.10;99.90;;;;;;4954033;28;20458;-71
2022/02/28 05:10:00;;;;;;;496.07;71.37;;;0.10;99.90;;;;;;4954079;29;20472;-71
2022/02/28 05:12:29;;;;;;;1999.90;292.13;;;0.00;99.90;;;;;;4954046;28;20472;-71
2022/02/28 05:14:58;;;;;;;1753.47;226.90;;;0.00;99.90;;;;;;4953939;28;20471;-71
2022/02/28 05:17:28;;;;;;;568.17;110.57;;;0.00;99.90;;;;;;4953949;29;20867;-71
2022/02/28 05:19:57;;;;;;;385.93;48.20;;;0.00;99.90;;;;;;4954013;28;20823;-71
2022/02/28 05:22:25;;;;;;;354.53;48.60;;;0.00;99.90;;;;;;4953936;28;20542;-71
2022/02/28 05:24:55;;;;;;;903.73;104.17;;;0.00;99.90;;;;;;4953920;29;20542;-71
2022/02/28 05:27:24;;;;;;;285.60;55.60;;;-0.10;99.90;;;;;;4954175;29;20455;-71
2022/02/28 05:29:52;;;;;;;753.10;106.90;;;-0.10;99.90;;;;;;4953885;29;20479;-71
2022/02/28 05:32:20;;;;;;;1615.47;205.07;;;-0.10;99.90;;;;;;4953547;29;20566;-71
2022/02/28 05:35:14;;;;;;;1089.00;153.23;;;-0.10;99.90;;;;;;4953749;29;20482;-71
2022/02/28 05:38:07;;;;;;;537.17;80.87;;;-0.10;99.90;;;;;;4954618;29;20451;-71
2022/02/28 05:40:37;;;;;;;260.73;38.20;;;-0.20;99.90;;;;;;4954052;29;20459;-71
2022/02/28 05:43:10;;;;;;;1561.17;210.23;;;-0.20;99.90;;;;;;4958231;28;20497;-71
2022/02/28 05:45:40;;;;;;;1643.50;213.97;;;-0.20;99.90;;;;;;4957187;28;20461;-71
2022/02/28 05:48:38;;;;;;;326.93;53.50;;;-0.20;99.90;;;;;;4938120;29;20444;-71
2022/02/28 05:51:12;;;;;;;235.30;36.77;;;-0.20;99.90;;;;;;4938415;29;20572;-71
2022/02/28 05:53:40;;;;;;;1517.93;185.10;;;-0.20;99.90;;;;;;4941403;29;20491;-70
2022/02/28 05:56:11;;;;;;;1516.73;203.87;;;-0.20;99.90;;;;;;4958873;29;20850;-71
2022/02/28 05:58:39;;;;;;;458.43;66.37;;;-0.20;99.90;;;;;;4959806;28;20955;-71
2022/02/28 06:01:07;;;;;;;392.13;58.77;;;-0.20;99.90;;;;;;4959279;29;20779;-71
2022/02/28 06:03:35;;;;;;;524.30;73.17;;;-0.30;99.90;;;;;;4958653;29;20501;-71
2022/02/28 06:06:05;;;;;;;1246.70;167.47;;;-0.30;99.90;;;;;;4959170;29;20955;-71
2022/02/28 06:08:35;;;;;;;595.33;60.03;;;-0.30;99.90;;;;;;4958494;29;20522;-71
2022/02/28 06:11:03;;;;;;;300.63;44.50;;;-0.30;99.90;;;;;;4957619;29;20615;-71
2022/02/28 06:13:31;;;;;;;386.43;52.97;;;-0.30;99.90;;;;;;4957233;28;20474;-71
2022/02/28 06:15:59;;;;;;;1301.50;185.23;;;-0.30;99.90;;;;;;4956625;29;20501;-71
2022/02/28 06:18:28;;;;;;;1782.90;212.27;;;-0.30;99.90;;;;;;4957688;29;20466;-71
2022/02/28 06:20:56;;;;;;;1918.93;239.00;;;-0.30;99.90;;;;;;4957344;29;20541;-71
2022/02/28 06:23:24;;;;;;;658.20;102.93;;;-0.30;99.90;;;;;;4956944;28;20462;-71
2022/02/28 06:25:53;;;;;;;741.13;104.73;;;-0.30;99.90;;;;;;4958553;29;20533;-71
2022/02/28 06:28:21;;;;;;;618.53;99.00;;;-0.30;99.90;;;;;;4958063;29;20453;-71
2022/02/28 06:30:50;;;;;;;679.97;104.33;;;-0.30;99.90;;;;;;4957013;28;20813;-71
2022/02/28 06:33:19;;;;;;;604.07;70.63;;;-0.30;99.90;;;;;;4957332;29;20473;-71
2022/02/28 06:35:48;;;;;;;406.63;62.80;;;-0.30;99.90;;;;;;4958178;28;20470;-71
2022/02/28 06:38:17;;;;;;;1824.13;239.90;;;-0.30;99.90;;;;;;4957995;28;20444;-71
2022/02/28 06:40:46;;;;;;;417.20;73.27;;;-0.30;99.90;;;;;;4958432;29;20441;-71
2022/02/28 06:43:16;;;;;;;464.07;76.20;;;-0.30;99.90;;;;;;4957757;29;20823;-71
2022/02/28 06:45:45;;;;;;;1447.80;186.90;;;-0.30;99.90;;;;;;4958264;29;20928;-71
2022/02/28 06:48:13;;;;;;;1252.17;156.27;;;-0.30;99.90;;;;;;4957622;29;20453;-71
2022/02/28 06:50:42;;;;;;;1021.70;133.90;;;-0.30;99.90;;;;;;4956350;28;20533;-71
2022/02/28 06:53:10;;;;;;;403.00;67.37;;;-0.30;99.90;;;;;;4956960;28;20454;-71
2022/02/28 06:55:40;;;;;;;659.67;100.13;;;-0.30;99.90;;;;;;4957521;28;20486;-71
2022/02/28 06:58:09;;;;;;;429.13;66.27;;;-0.30;99.90;;;;;;4957577;29;20455;-71
2022/02/28 07:00:38;;;;;;;677.40;117.33;;;-0.30;99.90;;;;;;4957552;28;20478;-71
2022/02/28 07:03:12;;;;;;;1395.40;189.57;;;-0.30;99.90;;;;;;4956581;29;20805;-71
2022/02/28 07:05:41;;;;;;;1536.83;219.20;;;-0.30;99.90;;;;;;4956215;29;20454;-71
2022/02/28 07:08:10;;;;;;;602.20;113.13;;;-0.20;99.90;;;;;;4957646;28;20451;-71
2022/02/28 07:10:38;;;;;;;1007.43;157.00;;;-0.20;99.90;;;;;;4957338;29;20450;-71
2022/02/28 07:13:06;;;;;;;412.20;64.43;;;-0.20;99.90;;;;;;4957820;28;20979;-71
2022/02/28 07:15:34;;;;;;;1635.23;214.20;;;-0.20;99.90;;;;;;4957340;28;20566;-71
2022/02/28 07:18:04;;;;;;;301.77;50.77;;;-0.10;99.90;;;;;;4957500;29;21041;-71
2022/02/28 07:20:32;;;;;;;499.37;135.77;;;-0.10;99.90;;;;;;4957409;28;20936;-71
2022/02/28 07:23:00;;;;;;;575.63;81.33;;;0.00;99.90;;;;;;4955792;28;20472;-71
2022/02/28 07:25:28;;;;;;;559.73;121.87;;;0.00;99.90;;;;;;4957351;28;20869;-71
2022/02/28 07:27:57;;;;;;;631.37;83.57;;;0.10;99.90;;;;;;4957022;28;20442;-71
2022/02/28 07:30:25;;;;;;;363.80;66.93;;;0.20;99.90;;;;;;4955756;29;20494;-71
2022/02/28 07:32:55;;;;;;;685.67;110.73;;;0.20;99.90;;;;;;4956814;28;20566;-71
2022/02/28 07:35:25;;;;;;;932.57;138.53;;;0.30;99.90;;;;;;4955549;29;20472;-71
2022/02/28 07:37:53;;;;;;;1255.50;161.40;;;0.40;99.90;;;;;;4957075;28;20450;-71
2022/02/28 07:40:21;;;;;;;790.77;142.00;;;0.40;99.90;;;;;;4955535;28;20462;-71
2022/02/28 07:42:49;;;;;;;668.90;143.10;;;0.50;99.90;;;;;;4956935;28;20467;-71
2022/02/28 07:45:17;;;;;;;641.33;120.07;;;0.60;99.90;;;;;;4955694;29;20457;-71
2022/02/28 07:47:45;;;;;;;629.60;149.33;;;0.60;99.90;;;;;;4956856;28;20466;-71
2022/02/28 07:50:13;;;;;;;698.57;143.70;;;0.70;99.90;;;;;;4956851;29;20968;-71
2022/02/28 07:52:43;;;;;;;588.70;150.37;;;0.80;99.90;;;;;;4956735;28;20472;-71
2022/02/28 07:55:11;;;;;;;690.80;105.37;;;0.80;99.90;;;;;;4957004;29;20480;-72
2022/02/28 07:57:40;;;;;;;681.37;138.00;;;0.90;99.90;;;;;;4956784;28;20438;-71
2022/02/28 08:00:09;;;;;;;611.57;96.13;;;1.00;99.90;;;;;;4956721;28;20455;-71
2022/02/28 08:02:40;;;;;;;865.00;167.53;;;1.10;99.90;;;;;;4956929;29;20578;-72
2022/02/28 08:05:09;;;;;;;866.50;130.93;;;1.20;99.90;;;;;;4955470;28;20801;-71
2022/02/28 08:07:44;;;;;;;1999.90;327.37;;;1.30;99.90;;;;;;4956647;28;20802;-72
2022/02/28 08:10:13;;;;;;;1527.77;281.53;;;1.40;99.90;;;;;;4956498;28;20547;-72
2022/02/28 08:12:41;;;;;;;861.33;131.07;;;1.50;99.90;;;;;;4956364;28;20495;-72
2022/02/28 08:15:10;;;;;;;1216.20;192.83;;;1.60;99.90;;;;;;4956673;28;20784;-72
2022/02/28 08:17:39;;;;;;;918.70;145.13;;;1.80;99.90;;;;;;4956687;29;20496;-72
2022/02/28 08:20:11;;;;;;;1999.90;315.57;;;2.00;99.90;;;;;;4954927;28;20483;-72
2022/02/28 08:22:39;;;;;;;1999.90;378.67;;;2.10;99.90;;;;;;4956286;29;20891;-72
2022/02/28 08:25:09;;;;;;;1999.90;999.90;;;2.30;99.90;;;;;;4956015;28;20469;-72
2022/02/28 08:27:38;;;;;;;1936.50;310.97;;;2.40;99.90;;;;;;4956010;29;20446;-72
2022/02/28 08:30:07;;;;;;;1992.17;392.20;;;2.60;99.90;;;;;;4955778;28;20506;-72
2022/02/28 08:32:35;;;;;;;1999.90;999.90;;;2.70;99.90;;;;;;4954586;29;20492;-72
2022/02/28 08:35:04;;;;;;;1999.90;443.23;;;2.90;99.90;;;;;;4955834;28;20529;-72
2022/02/28 08:37:32;;;;;;;1999.90;999.90;;;3.00;99.90;;;;;;4955861;29;20834;-72
2022/02/28 08:40:01;;;;;;;1999.90;999.90;;;3.10;99.90;;;;;;4954445;29;20458;-72
2022/02/28 08:42:30;;;;;;;1999.90;567.53;;;3.30;99.90;;;;;;4955863;28;20549;-72
2022/02/28 08:45:00;;;;;;;1999.90;999.90;;;3.40;99.90;;;;;;4954457;29;20474;-72
2022/02/28 08:47:28;;;;;;;1999.90;999.90;;;3.50;99.90;;;;;;4956135;28;20443;-72
2022/02/28 08:49:56;;;;;;;1999.90;999.90;;;3.50;99.90;;;;;;4955597;29;20442;-71
2022/02/28 08:52:24;;;;;;;1999.90;999.90;;;3.60;99.90;;;;;;4956013;29;20564;-71
2022/02/28 08:54:52;;;;;;;1999.90;397.37;;;3.70;99.90;;;;;;4955821;28;20437;-72
2022/02/28 08:57:21;;;;;;;1999.90;999.90;;;3.70;99.90;;;;;;4955714;29;20459;-72
2022/02/28 08:59:51;;;;;;;1999.90;827.30;;;3.80;99.90;;;;;;4955397;28;20533;-72
2022/02/28 09:02:19;;;;;;;1999.90;399.87;;;3.80;99.90;;;;;;4954146;29;21101;-72
2022/02/28 09:04:47;;;;;;;1999.90;999.90;;;3.80;99.90;;;;;;4955367;29;20447;-72
2022/02/28 09:07:15;;;;;;;1999.90;667.77;;;3.90;99.90;;;;;;4955993;29;20477;-72
2022/02/28 09:09:43;;;;;;;1999.90;413.43;;;3.90;99.90;;;;;;4955641;28;20438;-72
2022/02/28 09:12:12;;;;;;;1999.90;462.87;;;3.90;99.90;;;;;;4955427;28;20835;-72
2022/02/28 09:14:40;;;;;;;1999.90;611.43;;;3.90;99.90;;;;;;4955539;28;20497;-72
2022/02/28 09:17:10;;;;;;;1999.90;838.43;;;4.00;99.90;;;;;;4954929;28;20466;-72
2022/02/28 09:19:38;;;;;;;1999.90;999.90;;;4.00;99.90;;;;;;4955207;29;20518;-72
2022/02/28 09:22:06;;;;;;;1999.90;587.40;;;4.10;99.90;;;;;;4955380;28;20804;-72
2022/02/28 09:24:36;;;;;;;1999.90;824.27;;;4.10;99.90;;;;;;4955471;29;20446;-72
2022/02/28 09:27:07;;;;;;;1999.90;824.73;;;4.20;99.90;;;;;;4953876;28;20482;-72
2022/02/28 09:29:35;;;;;;;1999.90;827.37;;;4.20;99.90;;;;;;4955440;29;20821;-72
2022/02/28 09:32:05;;;;;;;1999.90;384.87;;;4.30;99.90;;;;;;4955102;28;20478;-72
2022/02/28 09:34:34;;;;;;;1999.90;470.87;;;4.30;99.90;;;;;;4953797;28;20490;-72
2022/02/28 09:37:03;;;;;;;1999.90;859.63;;;4.40;99.90;;;;;;4955555;28;20478;-72
2022/02/28 09:39:31;;;;;;;1999.90;850.63;;;4.40;99.90;;;;;;4955562;28;20820;-72
2022/02/28 09:42:28;;;;;;;1999.90;479.83;;;4.50;99.90;;;;;;4954894;29;20474;-72
2022/02/28 09:45:15;;;;;;;1999.90;538.33;;;4.50;99.90;;;;;;4955318;29;20547;-72
2022/02/28 09:48:19;;;;;;;1999.90;575.80;;;4.60;99.90;;;;;;4933924;29;20443;-72
2022/02/28 09:51:07;;;;;;;1999.90;505.47;;;4.60;99.90;;;;;;4954451;28;20504;-72
2022/02/28 09:54:04;;;;;;;1999.90;604.97;;;4.70;99.90;;;;;;4936832;29;20443;-72
2022/02/28 09:56:52;;;;;;;1999.90;528.80;;;4.80;99.90;;;;;;4955063;29;20470;-72
2022/02/28 09:59:41;;;;;;;1999.90;501.70;;;4.80;99.90;;;;;;4954233;28;20447;-72
2022/02/28 10:02:12;;;;;;;1999.90;832.67;;;4.90;99.90;;;;;;4953658;28;20471;-72
2022/02/28 10:04:42;;;;;;;1999.90;831.13;;;4.90;99.90;;;;;;4953645;29;20454;-72
2022/02/28 10:07:23;;;;;;;1999.90;429.53;;;5.00;99.90;;;;;;4955331;28;20457;-72
2022/02/28 10:10:07;;;;;;;1999.90;373.27;;;5.00;99.90;;;;;;4953839;29;20435;-72
2022/02/28 10:12:35;;;;;;;1999.90;789.47;;;5.10;99.90;;;;;;4955476;29;20826;-72
2022/02/28 10:15:09;;;;;;;1936.57;310.30;;;5.10;99.90;;;;;;4955153;29;20513;-72
2022/02/28 10:17:45;;;;;;;1389.57;475.10;;;5.20;99.90;;;;;;4955199;29;20550;-72
2022/02/28 10:20:22;;;;;;;1429.77;497.00;;;5.30;99.90;;;;;;4955093;28;20423;-72
2022/02/28 10:22:56;;;;;;;1960.97;756.63;;;5.30;99.90;;;;;;4953330;28;20502;-72
2022/02/28 10:25:29;;;;;;;1324.33;466.17;;;5.40;99.90;;;;;;4953376;28;20447;-72
2022/02/28 10:28:08;;;;;;;1439.43;189.33;;;5.40;99.90;;;;;;4954479;28;20478;-72
2022/02/28 10:31:01;;;;;;;1332.03;449.57;;;5.50;99.90;;;;;;4958419;29;20426;-72
2022/02/28 10:33:47;;;;;;;1192.77;442.17;;;5.50;99.90;;;;;;4958555;29;20429;-72
2022/02/28 10:36:39;;;;;;;1352.30;450.53;;;5.60;99.90;;;;;;4948153;29;20443;-72
2022/02/28 10:39:14;;;;;;;212.07;103.43;;;5.60;99.90;;;;;;4956710;29;20603;-72
2022/02/28 10:41:45;;;;;;;172.60;74.73;;;5.70;99.90;;;;;;4958079;28;20456;-72
2022/02/28 10:44:15;;;;;;;321.63;130.93;;;5.70;99.90;;;;;;4956618;29;20824;-72
2022/02/28 10:46:47;;;;;;;222.10;89.50;;;5.80;99.90;;;;;;4956757;28;20458;-72
2022/02/28 10:49:19;;;;;;;153.07;75.40;;;5.80;99.90;;;;;;4956496;29;20485;-73
2022/02/28 10:51:52;;;;;;;263.47;112.97;;;5.90;99.90;;;;;;4958132;28;20489;-72
2022/02/28 10:54:25;;;;;;;244.23;106.20;;;6.00;99.90;;;;;;4957962;28;20435;-72
2022/02/28 10:56:57;;;;;;;418.53;142.43;;;6.00;99.90;;;;;;4957633;28;20569;-72
2022/02/28 10:59:27;;;;;;;296.30;127.13;;;6.10;99.90;;;;;;4957861;29;20419;-73
2022/02/28 11:01:56;;;;;;;338.20;160.53;;;6.10;99.90;;;;;;4956410;28;21031;-72
2022/02/28 11:04:36;;;;;;;615.53;255.10;;;6.20;99.90;;;;;;4957710;28;20445;-73
2022/02/28 11:07:05;;;;;;;824.30;286.13;;;6.30;99.90;;;;;;4957771;28;20423;-73
2022/02/28 11:09:38;;;;;;;672.83;262.10;;;6.30;99.90;;;;;;4958283;29;20780;-72
2022/02/28 11:12:28;;;;;;;1265.07;330.70;;;6.40;99.90;;;;;;4955999;29;20505;-73
2022/02/28 11:14:59;;;;;;;508.70;209.03;;;6.40;99.90;;;;;;4956331;29;20435;-72
2022/02/28 11:17:33;;;;;;;1336.27;446.00;;;6.50;99.90;;;;;;4957745;28;20872;-72
2022/02/28 11:20:06;;;;;;;1330.20;487.97;;;6.50;99.90;;;;;;4957229;29;20419;-72
2022/02/28 11:22:34;;;;;;;1362.57;461.33;;;6.60;99.90;;;;;;4955882;28;20474;-72
2022/02/28 11:25:05;;;;;;;1875.13;632.23;;;6.60;99.90;;;;;;4957095;29;20460;-72
2022/02/28 11:27:36;;;;;;;1400.53;513.87;;;6.70;99.90;;;;;;4957097;29;20510;-73
2022/02/28 11:30:08;;;;;;;1599.07;613.53;;;6.70;99.90;;;;;;4957167;28;20453;-73
2022/02/28 11:32:37;;;;;;;1958.50;741.90;;;6.80;99.90;;;;;;4957050;28;20468;-72
2022/02/28 11:35:40;;;;;;;1999.90;877.33;;;6.90;99.90;;;;;;4957092;28;20458;-72
2022/02/28 11:38:13;;;;;;;1999.90;928.27;;;6.90;99.90;;;;;;4957133;29;20514;-72
2022/02/28 11:40:44;;;;;;;1999.90;944.13;;;7.00;99.90;;;;;;4955366;28;20598;-72
2022/02/28 11:43:15;;;;;;;1999.90;999.90;;;7.00;99.90;;;;;;4956739;29;20473;-72
2022/02/28 11:45:51;;;;;;;1999.90;999.90;;;7.10;99.90;;;;;;4957389;28;20445;-72
2022/02/28 11:48:30;;;;;;;1999.90;999.90;;;7.10;99.90;;;;;;4955516;29;20446;-73
2022/02/28 11:51:00;;;;;;;1999.90;999.90;;;7.20;99.90;;;;;;4957007;29;20702;-73
2022/02/28 11:53:36;;;;;;;1999.90;999.90;;;7.30;99.90;;;;;;4955417;28;20829;-73
2022/02/28 11:56:54;;;;;;;1999.90;999.90;;;7.30;99.90;;;;;;4956586;28;20882;-73
2022/02/28 11:59:25;;;;;;;1999.90;999.90;;;7.40;99.90;;;;;;4956947;29;20467;-73
2022/02/28 12:02:03;;;;;;;1999.90;999.90;;;7.40;99.90;;;;;;4955434;29;20471;-73
2022/02/28 12:04:42;;;;;;;1999.90;999.90;;;7.50;99.90;;;;;;4956464;28;20457;-73
2022/02/28 12:07:23;;;;;;;1999.90;999.90;;;7.50;99.90;;;;;;4956930;29;20430;-73
2022/02/28 12:10:01;;;;;;;1999.90;999.90;;;7.60;99.90;;;;;;4956629;28;20450;-73
2022/02/28 12:12:34;;;;;;;1999.90;987.40;;;7.70;99.90;;;;;;4956683;29;20457;-72
2022/02/28 12:15:20;;;;;;;1999.90;852.13;;;7.70;99.90;;;;;;4955037;29;20520;-72
2022/02/28 12:18:03;;;;;;;1999.90;749.33;;;7.80;99.90;;;;;;4956322;28;20477;-73
2022/02/28 12:20:35;;;;;;;1999.90;943.90;;;7.80;99.90;;;;;;4956207;28;20458;-72
2022/02/28 12:23:30;;;;;;;1999.90;684.40;;;7.90;99.90;;;;;;4956173;28;20498;-72
2022/02/28 12:26:08;;;;;;;1999.90;701.83;;;8.00;99.90;;;;;;4954995;28;20521;-73
2022/02/28 12:28:53;;;;;;;1999.90;483.07;;;8.00;99.90;;;;;;4954738;29;20947;-73
2022/02/28 12:31:35;;;;;;;1999.90;690.77;;;8.10;99.90;;;;;;4956317;28;20490;-73
2022/02/28 12:34:08;;;;;;;1999.90;694.20;;;8.10;99.90;;;;;;4954762;28;20446;-72